Time;durP1;ratioP1;P1;durP2;ratioP2;P2;SDS_P1;SDS_P2;PMS_P1;PMS_P2;Temp;Humidity;BMP_temperature;BMP_pressure;BME280_temperature;BME280_humidity;BME280_pressure;Samples;Min_cycle;Max_cycle;Signal;HPM_P1;HPM_P2
2024/01/10 00:01:33;;;;;;;6.07;3.15;;;-5.50;99.90;;;;;;5070547;28;20251;-75
2024/01/10 00:04:00;;;;;;;4.78;3.00;;;-5.50;99.90;;;;;;5071061;28;20239;-76
2024/01/10 00:06:27;;;;;;;8.98;3.65;;;-5.50;99.90;;;;;;5070901;28;20205;-76
2024/01/10 00:08:54;;;;;;;10.23;5.38;;;-5.50;99.90;;;;;;5071517;28;20580;-76
2024/01/10 00:11:22;;;;;;;2.85;2.22;;;-5.50;99.90;;;;;;5070768;28;20224;-76
2024/01/10 00:13:48;;;;;;;3.63;2.60;;;-5.50;99.90;;;;;;5075405;28;20212;-76
2024/01/10 00:16:15;;;;;;;5.65;5.15;;;-5.50;99.90;;;;;;5090877;28;20703;-76
2024/01/10 00:18:42;;;;;;;5.15;2.67;;;-5.40;99.90;;;;;;5070955;28;20200;-76
2024/01/10 00:21:09;;;;;;;4.05;2.20;;;-5.40;99.90;;;;;;5079053;28;20741;-76
2024/01/10 00:23:35;;;;;;;3.28;2.28;;;-5.40;99.90;;;;;;5085052;28;20568;-75
2024/01/10 00:26:02;;;;;;;4.78;2.00;;;-5.50;99.90;;;;;;5086874;28;20222;-76
2024/01/10 00:28:30;;;;;;;7.10;3.55;;;-5.40;99.90;;;;;;5086447;28;20201;-76
2024/01/10 00:30:57;;;;;;;2.58;2.38;;;-5.40;99.90;;;;;;5087474;28;20197;-76
2024/01/10 00:33:24;;;;;;;3.45;2.80;;;-5.40;99.90;;;;;;5087664;28;20207;-76
2024/01/10 00:35:50;;;;;;;4.70;3.38;;;-5.40;99.90;;;;;;5086808;28;20670;-74
2024/01/10 00:38:17;;;;;;;4.60;3.33;;;-5.40;99.90;;;;;;5094014;28;20212;-75
2024/01/10 00:40:44;;;;;;;6.45;2.20;;;-5.40;99.90;;;;;;5096270;28;20229;-76
2024/01/10 00:43:10;;;;;;;2.92;2.72;;;-5.40;99.90;;;;;;5087651;28;20224;-76
2024/01/10 00:45:38;;;;;;;4.53;4.13;;;-5.30;99.90;;;;;;5087439;28;20214;-76
2024/01/10 00:48:06;;;;;;;2.88;2.67;;;-5.30;99.90;;;;;;5089092;28;20208;-76
2024/01/10 00:50:32;;;;;;;3.85;2.60;;;-5.30;99.90;;;;;;5088273;28;20211;-76
2024/01/10 00:52:59;;;;;;;2.72;2.28;;;-5.30;99.90;;;;;;5085115;28;20292;-76
2024/01/10 00:55:26;;;;;;;5.70;5.20;;;-5.30;99.90;;;;;;5086228;28;20227;-76
2024/01/10 00:57:53;;;;;;;8.02;4.63;;;-5.30;99.90;;;;;;5086867;28;20665;-76
2024/01/10 01:00:20;;;;;;;2.83;2.63;;;-5.30;99.90;;;;;;5088757;28;20712;-74
2024/01/10 01:02:48;;;;;;;3.22;2.35;;;-5.30;99.90;;;;;;5087178;28;20235;-76
2024/01/10 01:05:14;;;;;;;3.03;2.83;;;-5.20;99.90;;;;;;5083667;28;20215;-76
2024/01/10 01:07:41;;;;;;;2.20;2.00;;;-5.20;99.90;;;;;;5073367;28;20212;-76
2024/01/10 01:10:09;;;;;;;5.50;3.78;;;-5.10;99.90;;;;;;5071730;28;20201;-76
2024/01/10 01:12:36;;;;;;;2.85;2.53;;;-5.10;99.90;;;;;;5070358;28;20232;-77
2024/01/10 01:15:03;;;;;;;6.38;2.90;;;-5.10;99.90;;;;;;5071528;28;20204;-76
2024/01/10 01:17:29;;;;;;;2.67;2.13;;;-5.10;99.90;;;;;;5069902;28;20248;-76
2024/01/10 01:19:58;;;;;;;3.40;2.35;;;-5.00;99.90;;;;;;5071482;28;20224;-76
2024/01/10 01:22:25;;;;;;;11.02;2.92;;;-5.00;99.90;;;;;;5070366;28;20229;-75
2024/01/10 01:24:51;;;;;;;3.70;3.38;;;-4.90;99.90;;;;;;5072543;28;20212;-76
2024/01/10 01:27:18;;;;;;;5.43;3.30;;;-4.90;99.90;;;;;;5071475;28;20208;-76
2024/01/10 01:29:45;;;;;;;3.47;3.10;;;-4.80;99.90;;;;;;5072015;28;20204;-76
2024/01/10 01:32:11;;;;;;;3.13;2.88;;;-4.80;99.90;;;;;;5070619;28;20315;-76
2024/01/10 01:34:38;;;;;;;23.38;6.07;;;-4.80;99.90;;;;;;5071174;28;20204;-76
2024/01/10 01:37:06;;;;;;;6.10;4.53;;;-4.70;99.90;;;;;;5070943;28;20207;-77
2024/01/10 01:39:33;;;;;;;2.63;2.35;;;-4.70;99.90;;;;;;5070626;28;20204;-77
2024/01/10 01:41:59;;;;;;;2.40;2.20;;;-4.60;99.90;;;;;;5071361;28;20740;-75
2024/01/10 01:44:26;;;;;;;4.15;3.67;;;-4.60;99.90;;;;;;5070511;28;20231;-76
2024/01/10 01:46:54;;;;;;;5.07;4.65;;;-4.60;99.90;;;;;;5071092;28;20211;-76
2024/01/10 01:49:21;;;;;;;3.47;3.22;;;-4.60;99.90;;;;;;5070234;28;20208;-76
2024/01/10 01:51:48;;;;;;;3.75;2.53;;;-4.60;99.90;;;;;;5071121;28;20231;-77
2024/01/10 01:54:16;;;;;;;3.38;3.00;;;-4.50;99.90;;;;;;5071351;28;20205;-76
2024/01/10 01:56:44;;;;;;;5.63;4.55;;;-4.50;99.90;;;;;;5063215;28;20243;-76
2024/01/10 01:59:12;;;;;;;8.05;4.07;;;-4.50;99.90;;;;;;5070969;28;20212;-77
2024/01/10 02:01:38;;;;;;;5.72;5.18;;;-4.50;99.90;;;;;;5070276;28;20746;-76
2024/01/10 02:04:05;;;;;;;4.15;3.65;;;-4.50;99.90;;;;;;5070924;28;20212;-76
2024/01/10 02:06:32;;;;;;;4.80;2.85;;;-4.50;99.90;;;;;;5070901;28;20227;-76
2024/01/10 02:09:01;;;;;;;1.70;1.60;;;-4.50;99.90;;;;;;5071482;28;20205;-76
2024/01/10 02:11:29;;;;;;;3.03;2.72;;;-4.50;99.90;;;;;;5070896;28;20221;-76
2024/01/10 02:13:56;;;;;;;4.20;3.80;;;-4.60;99.90;;;;;;5071107;28;20211;-76
2024/01/10 02:16:24;;;;;;;4.25;3.75;;;-4.60;99.90;;;;;;5070668;28;20216;-76
2024/01/10 02:18:51;;;;;;;5.13;3.67;;;-4.60;99.90;;;;;;5071032;28;20201;-76
2024/01/10 02:21:21;;;;;;;9.18;3.50;;;-4.60;99.90;;;;;;5070458;28;20224;-75
2024/01/10 02:23:48;;;;;;;3.97;2.83;;;-4.70;99.90;;;;;;5063205;28;20205;-76
2024/01/10 02:26:16;;;;;;;8.45;3.33;;;-4.70;99.90;;;;;;5070913;28;20669;-76
2024/01/10 02:28:43;;;;;;;5.45;3.00;;;-4.70;99.90;;;;;;5062093;28;20215;-76
2024/01/10 02:31:10;;;;;;;2.85;2.55;;;-4.70;99.90;;;;;;5063021;28;20609;-76
2024/01/10 02:33:37;;;;;;;3.58;2.88;;;-4.70;99.90;;;;;;5059503;28;20208;-76
2024/01/10 02:36:04;;;;;;;6.93;3.50;;;-4.70;99.90;;;;;;5057735;28;20208;-76
2024/01/10 02:38:31;;;;;;;5.72;5.22;;;-4.70;99.90;;;;;;5062066;28;20231;-76
2024/01/10 02:40:58;;;;;;;5.00;2.72;;;-4.70;99.90;;;;;;5063256;28;20224;-76
2024/01/10 02:43:26;;;;;;;1.73;1.63;;;-4.60;99.90;;;;;;5053644;28;20583;-76
2024/01/10 02:45:52;;;;;;;4.22;2.80;;;-4.60;99.90;;;;;;5055695;28;20208;-77
2024/01/10 02:48:19;;;;;;;4.55;4.22;;;-4.60;99.90;;;;;;5062527;28;20204;-78
2024/01/10 02:50:46;;;;;;;5.50;3.80;;;-4.60;99.90;;;;;;5059125;28;20201;-77
2024/01/10 02:53:12;;;;;;;3.10;2.83;;;-4.60;99.90;;;;;;5051205;28;20205;-77
2024/01/10 02:55:40;;;;;;;4.47;4.07;;;-4.60;99.90;;;;;;5061849;28;20215;-78
2024/01/10 02:58:07;;;;;;;3.20;2.80;;;-4.60;99.90;;;;;;5071831;28;20200;-78
2024/01/10 03:00:35;;;;;;;7.45;4.60;;;-4.50;99.90;;;;;;5074367;28;20212;-78
2024/01/10 03:03:01;;;;;;;3.90;3.60;;;-4.50;99.90;;;;;;5061526;28;20595;-77
2024/01/10 03:05:28;;;;;;;4.25;3.92;;;-4.40;99.90;;;;;;5064576;28;20208;-78
2024/01/10 03:07:55;;;;;;;4.25;3.30;;;-4.40;99.90;;;;;;5075164;28;20201;-78
2024/01/10 03:10:21;;;;;;;4.03;3.65;;;-4.40;99.90;;;;;;5059426;28;20201;-78
2024/01/10 03:12:48;;;;;;;3.78;2.80;;;-4.40;99.90;;;;;;5059117;28;20232;-77
2024/01/10 03:15:15;;;;;;;4.68;3.45;;;-4.40;99.90;;;;;;5073994;28;20276;-78
2024/01/10 03:17:43;;;;;;;5.53;4.13;;;-4.40;99.90;;;;;;5066013;28;20204;-78
2024/01/10 03:20:10;;;;;;;5.57;4.45;;;-4.30;99.90;;;;;;5067313;28;20220;-78
2024/01/10 03:22:38;;;;;;;5.55;4.75;;;-4.30;99.90;;;;;;5064947;28;20225;-78
2024/01/10 03:25:05;;;;;;;7.57;3.95;;;-4.30;99.90;;;;;;5067992;28;20201;-77
2024/01/10 03:27:32;;;;;;;5.63;5.03;;;-4.20;99.90;;;;;;5056161;28;20201;-78
2024/01/10 03:29:58;;;;;;;3.90;3.60;;;-4.20;99.90;;;;;;5060495;28;20203;-77
2024/01/10 03:32:25;;;;;;;13.07;3.45;;;-4.30;99.90;;;;;;5058341;28;20229;-78
2024/01/10 03:34:54;;;;;;;8.70;3.78;;;-4.30;99.90;;;;;;5055955;28;20209;-78
2024/01/10 03:37:20;;;;;;;3.08;2.63;;;-4.30;99.90;;;;;;5063167;28;20243;-78
2024/01/10 03:39:47;;;;;;;3.08;2.85;;;-4.20;99.90;;;;;;5055670;28;20642;-78
2024/01/10 03:42:15;;;;;;;8.27;4.47;;;-4.20;99.90;;;;;;5069414;28;20224;-77
2024/01/10 03:44:42;;;;;;;6.88;3.92;;;-4.20;99.90;;;;;;5073289;28;20232;-78
2024/01/10 03:47:09;;;;;;;6.40;4.20;;;-4.20;99.90;;;;;;5067515;28;20201;-78
2024/01/10 03:49:35;;;;;;;9.18;4.60;;;-4.20;99.90;;;;;;5065001;28;20585;-78
2024/01/10 03:52:04;;;;;;;4.20;3.22;;;-4.20;99.90;;;;;;5068089;28;20217;-77
2024/01/10 03:54:31;;;;;;;7.10;4.40;;;-4.20;99.90;;;;;;5075762;28;20204;-78
2024/01/10 03:56:57;;;;;;;4.03;3.47;;;-4.20;99.90;;;;;;5078667;28;20215;-78
2024/01/10 03:59:24;;;;;;;10.40;4.20;;;-4.20;99.90;;;;;;5073115;28;20200;-78
2024/01/10 04:01:51;;;;;;;5.75;4.03;;;-4.20;99.90;;;;;;5070105;28;20727;-80
2024/01/10 04:04:17;;;;;;;9.25;4.20;;;-4.10;99.90;;;;;;5066995;28;20216;-78
2024/01/10 04:06:44;;;;;;;6.13;4.25;;;-4.10;99.90;;;;;;5072660;28;20588;-79
2024/01/10 04:09:12;;;;;;;5.15;4.22;;;-4.20;99.90;;;;;;5071976;28;20227;-79
2024/01/10 04:11:39;;;;;;;7.13;4.50;;;-4.30;99.90;;;;;;5072871;28;20228;-78
2024/01/10 04:14:06;;;;;;;4.13;3.17;;;-4.30;99.90;;;;;;5072934;28;20203;-79
2024/01/10 04:16:33;;;;;;;4.65;4.25;;;-4.20;99.90;;;;;;5072458;28;20226;-79
2024/01/10 04:19:00;;;;;;;4.40;3.35;;;-4.30;99.90;;;;;;5072750;28;20244;-80
2024/01/10 04:21:27;;;;;;;4.15;3.83;;;-4.30;99.90;;;;;;5072840;28;20600;-78
2024/01/10 04:23:54;;;;;;;11.95;5.40;;;-4.40;99.90;;;;;;5070015;28;20681;-79
2024/01/10 04:26:22;;;;;;;6.43;4.75;;;-4.40;99.90;;;;;;5072775;28;20204;-78
2024/01/10 04:28:48;;;;;;;5.57;4.55;;;-4.40;99.90;;;;;;5070160;28;20689;-79
2024/01/10 04:31:15;;;;;;;3.72;2.95;;;-4.40;99.90;;;;;;5069828;28;20699;-79
2024/01/10 04:33:42;;;;;;;5.63;4.68;;;-4.40;99.90;;;;;;5071173;28;20201;-79
2024/01/10 04:36:09;;;;;;;4.57;3.58;;;-4.50;99.90;;;;;;5071518;28;20200;-79
2024/01/10 04:38:35;;;;;;;13.05;7.30;;;-4.50;99.90;;;;;;5070759;28;20458;-77
2024/01/10 04:41:02;;;;;;;10.35;4.90;;;-4.50;99.90;;;;;;5069949;28;20227;-79
2024/01/10 04:43:30;;;;;;;11.55;4.90;;;-4.50;99.90;;;;;;5069737;28;20200;-78
2024/01/10 04:45:57;;;;;;;3.15;2.90;;;-4.40;99.90;;;;;;5065983;28;20211;-78
2024/01/10 04:48:24;;;;;;;3.63;3.22;;;-4.50;99.90;;;;;;5065414;28;20208;-77
2024/01/10 04:50:51;;;;;;;4.78;3.15;;;-4.50;99.90;;;;;;5062686;28;20208;-77
2024/01/10 04:53:17;;;;;;;5.82;3.58;;;-4.50;99.90;;;;;;5068024;28;20205;-78
2024/01/10 04:55:44;;;;;;;3.97;3.67;;;-4.50;99.90;;;;;;5065487;28;20208;-77
2024/01/10 04:58:11;;;;;;;3.47;2.95;;;-4.50;99.90;;;;;;5065991;28;20666;-77
2024/01/10 05:00:39;;;;;;;4.15;3.83;;;-4.50;99.90;;;;;;5071314;28;20207;-77
2024/01/10 05:03:06;;;;;;;6.13;3.72;;;-4.50;99.90;;;;;;5066965;28;20698;-77
2024/01/10 05:05:32;;;;;;;12.60;3.80;;;-4.50;99.90;;;;;;5063700;28;20229;-77
2024/01/10 05:08:01;;;;;;;6.25;4.05;;;-4.50;99.90;;;;;;5059779;28;20204;-77
2024/01/10 05:10:27;;;;;;;3.45;2.15;;;-4.50;99.90;;;;;;5066148;28;20197;-77
2024/01/10 05:12:55;;;;;;;5.45;4.47;;;-4.50;99.90;;;;;;5063282;28;20244;-78
2024/01/10 05:15:21;;;;;;;7.07;5.00;;;-4.50;99.90;;;;;;5070093;28;20204;-78
2024/01/10 05:17:49;;;;;;;5.35;4.40;;;-4.50;99.90;;;;;;5063745;28;20219;-78
2024/01/10 05:20:16;;;;;;;5.03;3.80;;;-4.50;99.90;;;;;;5067519;28;20204;-78
2024/01/10 05:22:43;;;;;;;5.97;5.25;;;-4.50;99.90;;;;;;5068054;28;20224;-80
2024/01/10 05:25:10;;;;;;;4.55;3.67;;;-4.50;99.90;;;;;;5065906;28;20196;-77
2024/01/10 05:27:37;;;;;;;8.52;5.32;;;-4.50;99.90;;;;;;5067077;28;20207;-76
2024/01/10 05:30:05;;;;;;;4.63;4.18;;;-4.60;99.90;;;;;;5068990;28;20208;-80
2024/01/10 05:32:32;;;;;;;4.60;3.33;;;-4.60;99.90;;;;;;5077274;28;20223;-80
2024/01/10 05:35:00;;;;;;;4.50;4.15;;;-4.60;99.90;;;;;;5076082;28;20213;-82
2024/01/10 05:37:26;;;;;;;4.45;3.30;;;-4.70;99.90;;;;;;5077549;28;20215;-81
2024/01/10 05:39:53;;;;;;;7.82;4.55;;;-4.70;99.90;;;;;;5068740;28;20217;-81
2024/01/10 05:42:20;;;;;;;3.35;2.95;;;-4.70;99.90;;;;;;5066072;28;20616;-79
2024/01/10 05:44:47;;;;;;;3.45;3.13;;;-4.70;99.90;;;;;;5069990;28;20215;-79
2024/01/10 05:47:13;;;;;;;6.65;2.90;;;-4.70;99.90;;;;;;5068092;28;20581;-79
2024/01/10 05:49:40;;;;;;;3.97;3.63;;;-4.70;99.90;;;;;;5075137;28;20300;-79
2024/01/10 05:52:08;;;;;;;3.53;3.22;;;-4.70;99.90;;;;;;5073502;28;20307;-79
2024/01/10 05:54:35;;;;;;;4.25;3.55;;;-4.70;99.90;;;;;;5075868;28;20214;-78
2024/01/10 05:57:02;;;;;;;4.88;3.13;;;-4.80;99.90;;;;;;5065251;28;20205;-80
2024/01/10 05:59:30;;;;;;;2.60;2.40;;;-4.80;99.90;;;;;;5068160;28;20215;-78
2024/01/10 06:01:57;;;;;;;8.68;4.75;;;-4.90;99.90;;;;;;5069200;28;20228;-79
2024/01/10 06:04:24;;;;;;;3.58;2.78;;;-4.90;99.90;;;;;;5068722;28;20212;-79
2024/01/10 06:06:50;;;;;;;8.63;5.43;;;-5.00;99.90;;;;;;5074186;28;20211;-81
2024/01/10 06:09:21;;;;;;;6.07;3.65;;;-5.10;99.90;;;;;;5079710;28;20214;-82
2024/01/10 06:11:48;;;;;;;8.13;4.22;;;-5.10;99.90;;;;;;5077577;28;20285;-80
2024/01/10 06:14:15;;;;;;;8.38;6.30;;;-5.10;99.90;;;;;;5073030;28;20264;-80
2024/01/10 06:16:42;;;;;;;3.60;3.38;;;-5.10;99.90;;;;;;5070987;28;20222;-80
2024/01/10 06:19:10;;;;;;;3.67;2.35;;;-5.10;99.90;;;;;;5071107;28;20228;-80
2024/01/10 06:21:37;;;;;;;10.63;5.47;;;-5.20;99.90;;;;;;5070175;28;20639;-80
2024/01/10 06:24:04;;;;;;;3.85;3.58;;;-5.20;99.90;;;;;;5078661;28;20184;-80
2024/01/10 06:26:32;;;;;;;3.50;3.13;;;-5.20;99.90;;;;;;5085969;28;20572;-80
2024/01/10 06:28:59;;;;;;;5.97;4.90;;;-5.30;99.90;;;;;;5088578;28;20208;-80
2024/01/10 06:31:25;;;;;;;5.80;3.58;;;-5.30;99.90;;;;;;5073403;28;20753;-80
2024/01/10 06:33:52;;;;;;;8.20;5.15;;;-5.40;99.90;;;;;;5081642;28;20204;-81
2024/01/10 06:36:19;;;;;;;4.70;4.30;;;-5.50;99.90;;;;;;5078496;28;20586;-79
2024/01/10 06:38:45;;;;;;;6.30;3.72;;;-5.50;99.90;;;;;;5078820;28;20583;-80
2024/01/10 06:41:13;;;;;;;7.40;4.03;;;-5.60;99.90;;;;;;5074273;28;20232;-79
2024/01/10 06:43:41;;;;;;;5.72;3.15;;;-5.60;99.90;;;;;;5079066;28;20208;-80
2024/01/10 06:46:10;;;;;;;3.60;3.40;;;-5.70;99.90;;;;;;5070288;28;20953;-79
2024/01/10 06:48:36;;;;;;;8.13;4.45;;;-5.80;99.90;;;;;;5078510;28;20204;-80
2024/01/10 06:51:03;;;;;;;6.72;5.10;;;-5.80;99.90;;;;;;5078474;28;20458;-79
2024/01/10 06:53:30;;;;;;;4.25;3.60;;;-5.80;99.90;;;;;;5077647;28;20211;-80
2024/01/10 06:55:57;;;;;;;3.65;3.05;;;-5.80;99.90;;;;;;5079900;28;20692;-80
2024/01/10 06:58:23;;;;;;;10.68;5.38;;;-5.90;99.90;;;;;;5079282;28;20203;-79
2024/01/10 07:00:52;;;;;;;1.70;1.60;;;-6.00;99.90;;;;;;5076501;28;20200;-80
2024/01/10 07:03:19;;;;;;;5.90;3.67;;;-6.00;99.90;;;;;;5076125;28;20223;-80
2024/01/10 07:05:45;;;;;;;5.55;3.70;;;-6.00;99.90;;;;;;5067009;28;20239;-80
2024/01/10 07:08:12;;;;;;;4.20;3.17;;;-6.10;99.90;;;;;;5067979;28;20209;-79
2024/01/10 07:10:39;;;;;;;7.90;4.13;;;-6.10;99.90;;;;;;5074815;28;20587;-80
2024/01/10 07:13:06;;;;;;;3.95;2.92;;;-6.10;99.90;;;;;;5066270;28;20232;-79
2024/01/10 07:15:33;;;;;;;4.93;4.20;;;-6.10;99.90;;;;;;5074533;28;20637;-79
2024/01/10 07:18:01;;;;;;;3.20;2.90;;;-6.10;99.90;;;;;;5075495;28;20200;-79
2024/01/10 07:20:28;;;;;;;6.25;3.90;;;-6.10;99.90;;;;;;5065971;28;20206;-79
2024/01/10 07:22:54;;;;;;;3.33;3.13;;;-6.20;99.90;;;;;;5069667;28;20708;-79
2024/01/10 07:25:25;;;;;;;3.85;3.55;;;-6.20;99.90;;;;;;5073341;28;20205;-80
2024/01/10 07:27:51;;;;;;;7.30;3.00;;;-6.20;99.90;;;;;;5076553;28;20208;-79
2024/01/10 07:30:18;;;;;;;3.58;2.75;;;-6.10;99.90;;;;;;5071604;28;20208;-79
2024/01/10 07:32:46;;;;;;;5.65;5.07;;;-6.10;99.90;;;;;;5073671;28;20224;-79
2024/01/10 07:35:15;;;;;;;3.25;3.00;;;-6.10;99.90;;;;;;5067555;28;20530;-78
2024/01/10 07:37:43;;;;;;;7.07;5.35;;;-6.00;99.90;;;;;;5075338;28;20204;-78
2024/01/10 07:40:10;;;;;;;3.35;1.90;;;-5.90;99.90;;;;;;5077268;28;20208;-78
2024/01/10 07:42:39;;;;;;;3.05;2.78;;;-5.90;99.90;;;;;;5072626;28;20224;-78
2024/01/10 07:45:07;;;;;;;3.60;2.10;;;-5.80;99.90;;;;;;5074351;28;20258;-78
2024/01/10 07:47:37;;;;;;;2.55;2.33;;;-5.80;99.90;;;;;;5069265;28;20708;-78
2024/01/10 07:50:05;;;;;;;5.25;4.85;;;-5.70;99.90;;;;;;5082983;28;20188;-79
2024/01/10 07:52:33;;;;;;;4.00;3.70;;;-5.70;99.90;;;;;;5086426;28;20248;-79
2024/01/10 07:55:00;;;;;;;6.13;3.25;;;-5.60;99.90;;;;;;5086498;28;20260;-79
2024/01/10 07:57:26;;;;;;;3.55;3.25;;;-5.50;99.90;;;;;;5073571;28;20208;-80
2024/01/10 07:59:53;;;;;;;4.53;4.15;;;-5.30;99.90;;;;;;5076041;28;20216;-79
2024/01/10 08:02:20;;;;;;;4.88;3.60;;;-5.20;99.90;;;;;;5076075;28;20228;-79
2024/01/10 08:04:47;;;;;;;14.35;6.32;;;-5.10;99.90;;;;;;5071520;28;20204;-79
2024/01/10 08:07:14;;;;;;;4.75;4.05;;;-4.90;99.90;;;;;;5072761;28;20291;-80
2024/01/10 08:09:42;;;;;;;5.50;3.58;;;-4.80;99.90;;;;;;5072835;28;20622;-80
2024/01/10 08:12:09;;;;;;;4.10;2.95;;;-4.60;99.90;;;;;;5073563;28;20228;-80
2024/01/10 08:14:37;;;;;;;10.35;4.47;;;-4.30;99.90;;;;;;5075840;28;20204;-80
2024/01/10 08:17:04;;;;;;;6.40;5.78;;;-3.90;99.90;;;;;;5075067;28;20646;-80
2024/01/10 08:19:31;;;;;;;6.70;5.93;;;-3.40;99.90;;;;;;5074215;28;20205;-80
2024/01/10 08:21:58;;;;;;;5.90;3.83;;;-2.80;99.90;;;;;;5066408;28;20605;-80
2024/01/10 08:24:25;;;;;;;8.05;4.43;;;-2.10;99.90;;;;;;5065282;28;20201;-80
2024/01/10 08:26:53;;;;;;;7.68;5.63;;;-1.20;99.90;;;;;;5067663;28;20204;-79
2024/01/10 08:29:20;;;;;;;5.43;4.95;;;-0.40;99.90;;;;;;5067073;28;20205;-79
2024/01/10 08:31:48;;;;;;;11.82;7.22;;;0.10;99.90;;;;;;5072542;28;20232;-80
2024/01/10 08:34:15;;;;;;;9.50;4.32;;;0.40;99.90;;;;;;5070359;28;20200;-80
2024/01/10 08:36:41;;;;;;;8.60;5.70;;;0.70;99.90;;;;;;5072411;28;20204;-80
2024/01/10 08:39:10;;;;;;;9.60;5.78;;;1.30;99.90;;;;;;5086861;28;20207;-80
2024/01/10 08:41:42;;;;;;;9.75;5.80;;;1.80;99.90;;;;;;5084709;28;20244;-80
2024/01/10 08:44:11;;;;;;;10.50;6.78;;;2.40;99.90;;;;;;5079497;28;20218;-82
2024/01/10 08:46:38;;;;;;;8.98;5.82;;;2.80;99.80;;;;;;5075307;28;20209;-81
2024/01/10 08:49:04;;;;;;;11.35;6.95;;;3.10;98.50;;;;;;5075336;28;20214;-81
2024/01/10 08:51:31;;;;;;;10.27;7.40;;;3.40;98.20;;;;;;5075650;28;20227;-81
2024/01/10 08:53:58;;;;;;;14.07;6.35;;;3.60;97.40;;;;;;5077248;28;20211;-81
2024/01/10 08:56:25;;;;;;;9.38;6.15;;;3.70;97.10;;;;;;5066008;28;20198;-79
2024/01/10 08:58:52;;;;;;;18.05;7.93;;;3.60;96.50;;;;;;5070686;28;20221;-78
2024/01/10 09:01:21;;;;;;;10.88;6.63;;;3.20;95.70;;;;;;5072239;28;20227;-77
2024/01/10 09:03:48;;;;;;;14.85;7.22;;;2.70;96.30;;;;;;5065636;28;20644;-78
2024/01/10 09:06:16;;;;;;;11.98;7.55;;;2.60;96.50;;;;;;5071790;28;20232;-78
2024/01/10 09:08:43;;;;;;;11.18;6.22;;;2.40;97.00;;;;;;5070055;28;20216;-79
2024/01/10 09:11:10;;;;;;;16.63;8.73;;;2.10;96.90;;;;;;5073890;28;20251;-78
2024/01/10 09:13:37;;;;;;;13.18;8.00;;;2.10;97.00;;;;;;5072965;28;20202;-80
2024/01/10 09:16:05;;;;;;;15.68;8.35;;;2.00;97.20;;;;;;5073145;28;20210;-81
2024/01/10 09:18:33;;;;;;;14.23;7.05;;;1.80;97.20;;;;;;5074175;28;20559;-79
2024/01/10 09:21:00;;;;;;;9.00;6.15;;;1.40;97.60;;;;;;5071280;28;20232;-81
2024/01/10 09:23:27;;;;;;;15.52;7.85;;;1.40;97.70;;;;;;5070456;28;20222;-80
2024/01/10 09:25:54;;;;;;;14.23;7.70;;;1.00;97.80;;;;;;5072961;28;20678;-81
2024/01/10 09:28:21;;;;;;;9.82;6.63;;;1.40;97.80;;;;;;5073672;28;20299;-81
2024/01/10 09:30:48;;;;;;;9.15;5.53;;;2.10;96.90;;;;;;5076472;28;20213;-79
2024/01/10 09:33:15;;;;;;;9.57;7.00;;;2.80;96.20;;;;;;5073894;28;20202;-79
2024/01/10 09:35:43;;;;;;;8.20;6.85;;;3.30;96.10;;;;;;5071100;28;20207;-79
2024/01/10 09:38:10;;;;;;;9.00;7.00;;;4.60;96.20;;;;;;5072527;28;20214;-78
2024/01/10 09:40:37;;;;;;;13.15;7.95;;;5.90;93.80;;;;;;5068512;28;20201;-78
2024/01/10 09:43:07;;;;;;;13.82;8.25;;;7.10;92.90;;;;;;5070449;28;20668;-78
2024/01/10 09:45:36;;;;;;;11.57;7.60;;;8.00;90.80;;;;;;5065983;28;20201;-79
2024/01/10 09:48:03;;;;;;;11.45;7.68;;;8.10;90.30;;;;;;5072118;28;20204;-80
2024/01/10 09:50:30;;;;;;;10.85;7.55;;;8.00;90.00;;;;;;5078360;28;20197;-78
2024/01/10 09:53:06;;;;;;;13.88;8.70;;;7.20;89.60;;;;;;5080941;28;20297;-78
2024/01/10 09:55:36;;;;;;;9.82;7.20;;;7.40;90.70;;;;;;5075927;28;20561;-79
2024/01/10 09:58:05;;;;;;;14.27;8.32;;;8.20;88.50;;;;;;5080534;28;20300;-79
2024/01/10 10:00:35;;;;;;;9.35;6.35;;;9.20;87.00;;;;;;5078262;28;20214;-79
2024/01/10 10:03:04;;;;;;;10.88;7.03;;;9.60;86.30;;;;;;5079135;28;20221;-80
2024/01/10 10:05:34;;;;;;;13.00;7.57;;;9.70;84.10;;;;;;5077521;28;20214;-80
2024/01/10 10:08:02;;;;;;;11.40;7.55;;;9.70;83.60;;;;;;5076440;28;20212;-80
2024/01/10 10:10:29;;;;;;;9.38;8.18;;;10.00;82.70;;;;;;5072034;28;20221;-79
2024/01/10 10:12:56;;;;;;;11.77;7.95;;;10.80;80.90;;;;;;5069889;28;20234;-80
2024/01/10 10:15:26;;;;;;;13.52;8.43;;;11.40;80.60;;;;;;5071643;28;20770;-80
2024/01/10 10:17:54;;;;;;;13.93;9.23;;;11.50;80.00;;;;;;5073260;28;20205;-79
2024/01/10 10:20:22;;;;;;;14.23;9.75;;;12.60;79.60;;;;;;5068051;28;20219;-77
2024/01/10 10:23:00;;;;;;;18.20;9.63;;;13.10;77.10;;;;;;5071114;28;20583;-79
2024/01/10 10:25:31;;;;;;;15.00;9.57;;;12.70;76.40;;;;;;5072184;28;20204;-78
2024/01/10 10:27:58;;;;;;;14.05;7.63;;;12.30;75.40;;;;;;5073343;28;20200;-78
2024/01/10 10:30:25;;;;;;;12.30;9.05;;;12.00;76.00;;;;;;5072792;28;20216;-78
2024/01/10 10:32:53;;;;;;;13.80;8.27;;;12.50;78.20;;;;;;5071756;28;20221;-78
2024/01/10 10:35:20;;;;;;;11.00;8.50;;;13.10;74.70;;;;;;5071689;28;20238;-78
2024/01/10 10:37:48;;;;;;;17.98;10.38;;;13.90;74.40;;;;;;5074353;28;20259;-79
2024/01/10 10:40:14;;;;;;;11.38;8.43;;;14.20;72.90;;;;;;5069535;28;20296;-79
2024/01/10 10:42:47;;;;;;;15.82;8.65;;;13.40;73.90;;;;;;5071874;28;20230;-79
2024/01/10 10:45:17;;;;;;;14.07;8.68;;;12.80;73.60;;;;;;5071525;28;20200;-79
2024/01/10 10:47:46;;;;;;;14.00;9.43;;;12.90;75.00;;;;;;5073788;28;20723;-79
2024/01/10 10:50:16;;;;;;;11.52;8.70;;;12.90;72.90;;;;;;5073700;28;20326;-79
2024/01/10 10:52:46;;;;;;;14.05;8.90;;;12.60;72.80;;;;;;5071594;28;20235;-79
2024/01/10 10:55:17;;;;;;;12.95;9.00;;;12.50;73.40;;;;;;5073273;28;20665;-79
2024/01/10 10:57:47;;;;;;;12.35;9.32;;;11.40;73.80;;;;;;5073361;28;20747;-78
2024/01/10 11:00:16;;;;;;;13.18;7.70;;;11.90;74.60;;;;;;5072690;28;20236;-79
2024/01/10 11:02:43;;;;;;;8.70;7.20;;;12.00;74.10;;;;;;5072462;28;20228;-78
2024/01/10 11:05:10;;;;;;;16.15;9.43;;;11.90;73.90;;;;;;5073375;28;20205;-80
2024/01/10 11:07:37;;;;;;;10.65;8.63;;;12.40;75.60;;;;;;5073516;28;20205;-79
2024/01/10 11:10:09;;;;;;;12.70;9.10;;;13.50;73.10;;;;;;5072966;28;20678;-79
2024/01/10 11:12:59;;;;;;;10.98;7.85;;;14.20;72.70;;;;;;5071892;28;20230;-79
2024/01/10 11:15:44;;;;;;;14.48;8.73;;;14.90;72.50;;;;;;5072589;28;20350;-79
2024/01/10 11:18:28;;;;;;;10.15;8.15;;;16.00;71.30;;;;;;5073276;28;20220;-80
2024/01/10 11:21:08;;;;;;;17.25;9.73;;;15.70;71.20;;;;;;5071832;28;20217;-79
2024/01/10 11:23:44;;;;;;;13.02;9.90;;;15.70;70.80;;;;;;5076381;28;20580;-80
2024/01/10 11:26:13;;;;;;;14.38;9.63;;;16.40;70.20;;;;;;5077731;28;20235;-80
2024/01/10 11:28:41;;;;;;;11.63;9.15;;;16.10;69.80;;;;;;5077798;28;20208;-80
2024/01/10 11:31:09;;;;;;;15.35;10.25;;;15.60;69.10;;;;;;5078000;28;20241;-79
2024/01/10 11:33:40;;;;;;;14.85;9.10;;;15.70;70.60;;;;;;5076020;28;20298;-80
2024/01/10 11:36:09;;;;;;;13.20;10.15;;;15.60;71.40;;;;;;5077407;28;20713;-80
2024/01/10 11:38:40;;;;;;;16.70;10.48;;;15.20;71.10;;;;;;5080877;28;20578;-79
2024/01/10 11:41:08;;;;;;;14.00;10.30;;;14.10;72.50;;;;;;5077182;28;20205;-79
2024/01/10 11:43:35;;;;;;;13.73;9.60;;;13.20;74.20;;;;;;5075916;28;20611;-79
2024/01/10 11:46:05;;;;;;;18.27;10.75;;;12.50;75.10;;;;;;5075685;28;20220;-79
2024/01/10 11:48:32;;;;;;;16.02;11.25;;;12.00;75.40;;;;;;5077228;28;20540;-79
2024/01/10 11:51:01;;;;;;;16.40;10.82;;;11.40;76.10;;;;;;5080156;28;20209;-79
2024/01/10 11:53:46;;;;;;;15.07;9.75;;;10.30;78.40;;;;;;5078929;28;20203;-79
2024/01/10 11:56:16;;;;;;;15.43;10.23;;;9.70;80.40;;;;;;5077704;28;20296;-79
2024/01/10 11:58:56;;;;;;;15.32;10.02;;;9.40;80.90;;;;;;5075644;28;20730;-79
2024/01/10 12:01:25;;;;;;;18.73;9.85;;;9.00;82.00;;;;;;5076048;28;20608;-79
2024/01/10 12:03:54;;;;;;;13.73;9.05;;;8.70;82.60;;;;;;5076224;28;20230;-79
2024/01/10 12:06:22;;;;;;;13.75;8.90;;;8.10;84.30;;;;;;5076348;28;20636;-79
2024/01/10 12:08:50;;;;;;;15.77;9.35;;;7.60;85.60;;;;;;5075643;28;20670;-79
2024/01/10 12:11:17;;;;;;;14.73;8.60;;;7.80;86.40;;;;;;5076701;28;20283;-79
2024/01/10 12:13:44;;;;;;;15.27;9.27;;;7.70;86.20;;;;;;5077351;28;20315;-79
2024/01/10 12:16:12;;;;;;;16.60;9.73;;;7.90;86.30;;;;;;5077267;28;20219;-79
2024/01/10 12:18:40;;;;;;;17.75;11.15;;;8.00;86.10;;;;;;5090382;28;20212;-79
2024/01/10 12:21:08;;;;;;;17.63;9.30;;;7.70;86.60;;;;;;5091462;28;20211;-79
2024/01/10 12:23:35;;;;;;;17.20;11.35;;;7.30;87.40;;;;;;5092110;28;20225;-79
2024/01/10 12:26:04;;;;;;;17.65;10.68;;;7.30;88.20;;;;;;5092329;28;20212;-79
2024/01/10 12:28:31;;;;;;;15.93;9.30;;;7.20;88.80;;;;;;5090394;28;20208;-80
2024/01/10 12:30:58;;;;;;;21.83;11.30;;;6.50;89.90;;;;;;5089288;28;20205;-78
2024/01/10 12:33:25;;;;;;;19.40;9.20;;;5.90;90.10;;;;;;5089929;28;20200;-79
2024/01/10 12:36:09;;;;;;;12.88;9.48;;;5.60;90.60;;;;;;5090499;28;20204;-79
2024/01/10 12:38:36;;;;;;;22.67;9.73;;;5.50;91.20;;;;;;5086897;28;20641;-80
2024/01/10 12:41:04;;;;;;;19.17;9.45;;;5.50;91.30;;;;;;5087843;28;20572;-80
2024/01/10 12:43:30;;;;;;;14.52;10.40;;;5.40;91.40;;;;;;5086907;28;20237;-81
2024/01/10 12:46:04;;;;;;;15.93;10.57;;;5.10;91.80;;;;;;5084996;28;20216;-81
2024/01/10 12:48:31;;;;;;;16.20;9.68;;;5.00;91.90;;;;;;5076017;28;20209;-82